createdAt,value
2018-03-22T00:02:14.598Z,13.77
2018-03-22T00:04:44.786Z,31.73
2018-03-22T00:07:14.223Z,21.63
2018-03-22T00:12:18.057Z,17.43
2018-03-22T00:14:47.253Z,19.23
2018-03-22T00:17:16.340Z,19.23
2018-03-22T00:19:45.331Z,19.53
2018-03-22T00:25:16.625Z,19.02
2018-03-22T00:27:45.672Z,26.30
2018-03-22T00:30:14.957Z,21.37
2018-03-22T00:32:44.494Z,18.47
2018-03-22T00:35:13.290Z,20.07
2018-03-22T00:37:42.052Z,19.27
2018-03-22T00:40:11.897Z,22.70
2018-03-22T00:42:41.277Z,20.85
2018-03-22T00:45:10.723Z,21.83
2018-03-22T00:47:39.594Z,18.75
2018-03-22T00:50:08.685Z,23.40
2018-03-22T00:52:38.407Z,24.30
2018-03-22T00:55:07.509Z,17.90
2018-03-22T00:57:36.604Z,17.50
2018-03-22T01:00:05.606Z,16.83
2018-03-22T01:02:35.495Z,15.47
2018-03-22T01:05:05.116Z,15.65
2018-03-22T01:07:34.979Z,19.95
2018-03-22T01:10:05.100Z,16.08
2018-03-22T01:12:34.593Z,20.55
2018-03-22T01:15:03.458Z,15.87
2018-03-22T01:17:32.711Z,18.80
2018-03-22T01:20:01.321Z,19.90
2018-03-22T01:22:30.092Z,22.27
2018-03-22T01:24:58.381Z,15.23
2018-03-22T01:27:26.839Z,20.93
2018-03-22T01:29:55.264Z,18.90
2018-03-22T01:32:23.605Z,18.13
2018-03-22T01:34:52.374Z,15.43
2018-03-22T01:37:21.513Z,14.07
2018-03-22T01:39:50.341Z,15.17
2018-03-22T01:42:18.928Z,13.50
2018-03-22T01:44:47.845Z,15.33
2018-03-22T01:47:16.716Z,14.10
2018-03-22T01:49:45.382Z,9.83
2018-03-22T01:52:14.445Z,14.17
2018-03-22T01:54:42.956Z,13.60
2018-03-22T01:57:11.895Z,11.30
2018-03-22T01:59:40.319Z,13.82
2018-03-22T02:02:08.787Z,16.40
2018-03-22T02:04:37.612Z,10.20
2018-03-22T02:07:07.704Z,16.12
2018-03-22T02:09:36.932Z,12.55
2018-03-22T02:12:05.916Z,12.37
2018-03-22T02:14:35.552Z,12.73
2018-03-22T02:17:04.436Z,14.10
2018-03-22T02:19:33.023Z,14.83
2018-03-22T02:22:01.921Z,14.50
2018-03-22T02:24:30.607Z,14.37
2018-03-22T02:26:59.037Z,15.00
2018-03-22T02:29:27.360Z,19.57
2018-03-22T02:31:56.817Z,19.52
2018-03-22T02:34:25.423Z,18.97
2018-03-22T02:36:54.476Z,14.43
2018-03-22T02:39:23.882Z,20.07
2018-03-22T02:41:52.105Z,20.10
2018-03-22T02:44:20.883Z,14.80
2018-03-22T02:46:49.136Z,14.00
2018-03-22T02:49:17.820Z,12.63
2018-03-22T02:51:46.378Z,21.93
2018-03-22T02:54:14.738Z,17.02
2018-03-22T02:56:43.474Z,18.03
2018-03-22T02:59:12.160Z,14.77
2018-03-22T03:01:41.134Z,17.40
2018-03-22T03:04:09.947Z,19.37
2018-03-22T03:06:38.379Z,14.97
2018-03-22T03:09:06.757Z,14.53
2018-03-22T03:11:35.485Z,16.87
2018-03-22T03:14:04.980Z,11.73
2018-03-22T03:16:33.613Z,16.73
2018-03-22T03:19:02.978Z,16.20
2018-03-22T03:21:31.472Z,15.30
2018-03-22T03:23:59.965Z,13.87
2018-03-22T03:26:28.900Z,13.73
2018-03-22T03:28:57.685Z,16.90
2018-03-22T03:31:25.802Z,17.17
2018-03-22T03:33:54.292Z,16.60
2018-03-22T03:36:22.751Z,12.73
2018-03-22T03:38:51.259Z,17.83
2018-03-22T03:41:20.068Z,17.60
2018-03-22T03:43:48.358Z,11.17
2018-03-22T03:46:17.040Z,20.23
2018-03-22T03:48:46.287Z,15.00
2018-03-22T03:51:15.025Z,14.33
2018-03-22T03:53:43.678Z,15.47
2018-03-22T03:56:12.875Z,15.00
2018-03-22T03:58:42.123Z,14.82
2018-03-22T04:01:10.952Z,17.37
2018-03-22T04:03:39.669Z,11.87
2018-03-22T04:06:08.299Z,21.40
2018-03-22T04:08:36.743Z,14.33
2018-03-22T04:11:05.188Z,16.23
2018-03-22T04:13:33.671Z,16.70
2018-03-22T04:16:03.289Z,17.20
2018-03-22T04:18:32.072Z,12.37
2018-03-22T04:21:00.750Z,14.15
2018-03-22T04:23:29.631Z,14.70
2018-03-22T04:25:57.445Z,14.37
2018-03-22T04:28:27.760Z,13.03
2018-03-22T04:30:57.351Z,12.47
2018-03-22T04:33:27.579Z,17.33
2018-03-22T04:35:57.840Z,17.17
2018-03-22T04:38:27.190Z,25.03
2018-03-22T04:40:55.851Z,16.02
2018-03-22T04:43:25.148Z,17.10
2018-03-22T04:45:53.517Z,15.27
2018-03-22T04:48:22.037Z,14.48
2018-03-22T04:50:51.390Z,26.40
2018-03-22T04:53:20.844Z,14.83
2018-03-22T04:55:49.637Z,19.83
2018-03-22T04:58:18.442Z,17.70
2018-03-22T05:00:47.228Z,17.83
2018-03-22T05:03:16.309Z,17.80
2018-03-22T05:05:44.941Z,14.77
2018-03-22T05:08:13.457Z,14.33
2018-03-22T05:10:42.189Z,14.27
2018-03-22T05:13:10.991Z,14.13
2018-03-22T05:15:39.499Z,11.83
2018-03-22T05:18:07.854Z,12.83
2018-03-22T05:20:36.546Z,12.60
2018-03-22T05:23:05.812Z,14.53
2018-03-22T05:25:34.385Z,12.80
2018-03-22T05:28:02.770Z,16.77
2018-03-22T05:30:31.972Z,18.90
2018-03-22T05:33:01.043Z,32.30
2018-03-22T05:35:29.988Z,22.10
2018-03-22T05:37:58.672Z,14.33
2018-03-22T05:40:28.329Z,15.77
2018-03-22T05:42:57.052Z,17.50
2018-03-22T05:45:25.606Z,17.67
2018-03-22T05:47:54.025Z,21.43
2018-03-22T05:50:23.255Z,16.50
2018-03-22T05:52:51.746Z,16.48
2018-03-22T05:55:20.969Z,18.57
2018-03-22T05:57:51.913Z,16.37
2018-03-22T06:00:20.442Z,17.83
2018-03-22T06:02:49.206Z,21.60
2018-03-22T06:05:17.734Z,19.17
2018-03-22T06:07:46.194Z,15.90
2018-03-22T06:10:14.969Z,16.77
2018-03-22T06:12:43.415Z,16.10
2018-03-22T06:15:12.237Z,12.47
2018-03-22T06:17:40.695Z,22.00
2018-03-22T06:20:09.486Z,22.57
2018-03-22T06:22:38.507Z,26.63
2018-03-22T06:25:07.267Z,33.77
2018-03-22T06:27:35.576Z,18.23
2018-03-22T06:30:03.981Z,20.00
2018-03-22T06:32:32.653Z,22.70
2018-03-22T06:35:01.132Z,16.40
2018-03-22T06:37:29.706Z,20.33
2018-03-22T06:39:58.009Z,24.50
2018-03-22T06:42:26.975Z,25.20
2018-03-22T06:44:55.153Z,25.23
2018-03-22T06:47:23.762Z,26.37
2018-03-22T06:49:52.197Z,35.63
2018-03-22T06:52:21.389Z,19.57
2018-03-22T06:54:50.223Z,17.47
2018-03-22T06:57:18.524Z,23.70
2018-03-22T06:59:47.498Z,32.17
2018-03-22T07:02:16.446Z,17.83
2018-03-22T07:04:44.658Z,16.67
2018-03-22T07:07:13.465Z,27.40
2018-03-22T07:09:42.288Z,14.00
2018-03-22T07:12:11.294Z,12.27
2018-03-22T07:14:40.021Z,19.37
2018-03-22T07:17:08.607Z,20.10
2018-03-22T07:19:37.437Z,20.33
2018-03-22T07:22:05.881Z,14.97
2018-03-22T07:24:33.701Z,16.40
2018-03-22T07:27:02.468Z,19.13
2018-03-22T07:29:31.174Z,13.80
2018-03-22T07:32:00.129Z,19.80
2018-03-22T07:34:28.520Z,21.97
2018-03-22T07:36:57.351Z,16.03
2018-03-22T07:39:25.634Z,18.30
2018-03-22T07:41:54.643Z,19.62
2018-03-22T07:44:28.494Z,16.13
2018-03-22T07:46:56.849Z,20.93
2018-03-22T07:49:25.281Z,16.53
2018-03-22T07:51:54.088Z,14.38
2018-03-22T07:54:21.596Z,17.43
2018-03-22T07:56:50.647Z,15.85
2018-03-22T07:59:18.957Z,11.53
2018-03-22T08:01:47.414Z,12.00
2018-03-22T08:04:15.440Z,10.60
2018-03-22T08:06:44.438Z,11.23
2018-03-22T08:09:12.946Z,9.73
2018-03-22T08:11:43.753Z,15.87
2018-03-22T08:14:12.782Z,9.70
2018-03-22T08:16:41.931Z,9.80
2018-03-22T08:19:10.570Z,11.17
2018-03-22T08:21:38.982Z,9.43
2018-03-22T08:24:08.186Z,16.73
2018-03-22T08:26:37.082Z,9.57
2018-03-22T08:29:05.630Z,12.10
2018-03-22T08:31:33.961Z,12.20
2018-03-22T08:34:02.816Z,17.37
2018-03-22T08:36:31.756Z,12.93
2018-03-22T08:39:00.200Z,15.60
2018-03-22T08:41:29.015Z,21.00
2018-03-22T08:43:57.516Z,12.07
2018-03-22T08:46:26.103Z,12.00
2018-03-22T08:48:55.712Z,11.67
2018-03-22T08:51:24.742Z,17.00
2018-03-22T08:53:53.774Z,19.70
2018-03-22T08:56:22.523Z,13.90
2018-03-22T08:58:52.034Z,18.85
2018-03-22T09:01:20.521Z,21.10
2018-03-22T09:03:48.959Z,23.50
2018-03-22T09:06:17.399Z,21.80
2018-03-22T09:08:51.237Z,13.57
2018-03-22T09:11:19.425Z,30.43
2018-03-22T09:13:48.239Z,15.93
2018-03-22T09:16:16.895Z,22.53
2018-03-22T09:18:45.503Z,11.37
2018-03-22T09:21:15.738Z,14.90
2018-03-22T09:23:44.315Z,10.80
2018-03-22T09:26:13.359Z,10.80
2018-03-22T09:28:41.727Z,14.27
2018-03-22T09:31:10.108Z,11.13
2018-03-22T09:33:39.365Z,11.77
2018-03-22T09:36:08.985Z,10.27
2018-03-22T09:38:38.540Z,12.73
2018-03-22T09:43:41.134Z,13.47
2018-03-22T09:46:10.361Z,17.73
2018-03-22T09:48:39.796Z,14.40
2018-03-22T09:51:08.443Z,13.80
2018-03-22T09:53:37.196Z,11.07
2018-03-22T09:56:06.024Z,14.13
2018-03-22T09:58:34.389Z,14.50
2018-03-22T10:01:03.644Z,17.27
2018-03-22T10:03:32.325Z,22.97
2018-03-22T10:06:00.954Z,25.03
2018-03-22T10:08:29.508Z,20.70
2018-03-22T10:10:57.877Z,15.30
2018-03-22T10:13:26.347Z,11.50
2018-03-22T10:15:55.362Z,18.95
2018-03-22T10:18:24.808Z,21.95
2018-03-22T10:20:54.199Z,26.60
2018-03-22T10:23:23.736Z,26.40
2018-03-22T10:25:52.790Z,23.80
2018-03-22T10:28:21.916Z,23.57
2018-03-22T10:30:51.923Z,19.00
2018-03-22T10:33:20.849Z,24.87
2018-03-22T10:35:49.328Z,22.37
2018-03-22T10:38:17.708Z,33.57
2018-03-22T10:40:46.193Z,35.17
2018-03-22T10:43:14.860Z,18.87
2018-03-22T10:45:43.653Z,26.17
2018-03-22T10:48:12.531Z,25.00
2018-03-22T10:50:41.289Z,26.60
2018-03-22T10:53:10.673Z,29.03
2018-03-22T10:55:40.544Z,33.83
2018-03-22T10:58:09.284Z,26.13
2018-03-22T11:00:38.656Z,32.90
2018-03-22T11:03:13.481Z,29.45
2018-03-22T11:05:42.724Z,35.43
2018-03-22T11:08:11.196Z,23.80
2018-03-22T11:10:40.697Z,31.67
2018-03-22T11:13:09.116Z,28.70
2018-03-22T11:15:37.730Z,24.30
2018-03-22T11:18:06.309Z,32.83
2018-03-22T11:20:34.470Z,29.10
2018-03-22T11:23:04.318Z,25.50
2018-03-22T11:25:33.837Z,25.53
2018-03-22T11:28:02.808Z,26.73
2018-03-22T11:30:32.218Z,28.90
2018-03-22T11:33:00.354Z,32.15
2018-03-22T11:35:28.873Z,27.93
2018-03-22T11:37:57.529Z,24.63
2018-03-22T11:40:26.884Z,29.30
2018-03-22T11:42:55.593Z,25.12
2018-03-22T11:45:23.986Z,28.87
2018-03-22T11:47:52.784Z,31.10
2018-03-22T11:50:21.837Z,20.40
2018-03-22T11:52:50.594Z,23.10
2018-03-22T11:55:19.406Z,22.07
2018-03-22T11:57:47.957Z,21.48
2018-03-22T12:00:17.405Z,20.67
2018-03-22T12:02:46.191Z,21.90
2018-03-22T12:05:14.425Z,20.40
2018-03-22T12:07:42.802Z,26.67
2018-03-22T12:10:11.211Z,14.60
2018-03-22T12:12:39.722Z,20.10
2018-03-22T12:15:08.600Z,14.27
2018-03-22T12:17:37.309Z,17.13
2018-03-22T12:20:05.623Z,17.13
2018-03-22T12:22:34.755Z,16.63
2018-03-22T12:25:03.573Z,20.00
2018-03-22T12:27:31.717Z,14.57
2018-03-22T12:30:00.767Z,11.57
2018-03-22T12:32:29.007Z,15.27
2018-03-22T12:34:59.089Z,17.08
2018-03-22T12:37:28.761Z,14.85
2018-03-22T12:39:57.907Z,15.27
2018-03-22T12:42:26.698Z,18.00
2018-03-22T12:44:55.222Z,18.73
2018-03-22T12:47:24.105Z,23.02
2018-03-22T12:49:54.001Z,21.30
2018-03-22T12:52:23.846Z,16.97
2018-03-22T12:54:52.741Z,15.90
2018-03-22T12:57:21.148Z,21.70
2018-03-22T12:59:49.551Z,20.97
2018-03-22T13:02:18.475Z,18.58
2018-03-22T13:04:47.079Z,24.27
2018-03-22T13:07:15.737Z,20.47
2018-03-22T13:09:44.131Z,24.37
2018-03-22T13:12:12.663Z,36.50
2018-03-22T13:14:41.916Z,27.57
2018-03-22T13:17:10.940Z,24.27
2018-03-22T13:19:39.954Z,22.95
2018-03-22T13:22:09.295Z,23.07
2018-03-22T13:24:38.756Z,24.83
2018-03-22T13:27:07.200Z,32.07
2018-03-22T13:29:35.305Z,23.00
2018-03-22T13:32:03.363Z,23.33
2018-03-22T13:34:32.274Z,26.13
2018-03-22T13:37:01.350Z,20.70
2018-03-22T13:39:29.871Z,26.43
2018-03-22T13:41:58.745Z,29.37
2018-03-22T13:44:27.607Z,29.97
2018-03-22T13:46:56.256Z,24.27
2018-03-22T13:49:25.505Z,38.27
2018-03-22T13:51:54.004Z,28.35
2018-03-22T13:54:23.372Z,30.30
2018-03-22T13:56:51.991Z,28.03
2018-03-22T13:59:20.866Z,28.50
2018-03-22T14:01:49.685Z,29.42
2018-03-22T14:04:18.448Z,32.60
2018-03-22T14:06:47.216Z,30.33
2018-03-22T14:09:16.278Z,25.67
2018-03-22T14:11:45.339Z,24.90
2018-03-22T14:14:14.065Z,32.10
2018-03-22T14:16:44.202Z,24.60
2018-03-22T14:19:13.528Z,31.57
2018-03-22T14:21:42.868Z,26.10
2018-03-22T14:24:11.712Z,22.00
2018-03-22T14:26:42.016Z,24.83
2018-03-22T14:29:11.341Z,31.25
2018-03-22T14:31:39.560Z,24.23
2018-03-22T14:34:08.586Z,27.57
2018-03-22T14:36:37.379Z,22.47
2018-03-22T14:39:07.894Z,26.93
2018-03-22T14:41:37.849Z,22.63
2018-03-22T14:44:06.826Z,18.93
2018-03-22T14:46:36.231Z,24.87
2018-03-22T14:49:05.322Z,25.17
2018-03-22T14:51:34.613Z,20.40
2018-03-22T14:54:04.080Z,18.92
2018-03-22T14:56:34.544Z,22.17
2018-03-22T14:59:03.430Z,20.60
2018-03-22T15:01:32.602Z,21.30
2018-03-22T15:04:01.464Z,15.53
2018-03-22T15:06:30.687Z,18.85
2018-03-22T15:08:59.468Z,17.17
2018-03-22T15:11:28.376Z,20.20
2018-03-22T15:13:57.276Z,21.10
2018-03-22T15:16:26.021Z,16.50
2018-03-22T15:18:54.909Z,16.08
2018-03-22T15:21:23.169Z,13.40
2018-03-22T15:23:53.154Z,17.50
2018-03-22T15:26:21.752Z,17.02
2018-03-22T15:28:50.173Z,19.17
2018-03-22T15:31:18.754Z,17.40
2018-03-22T15:33:47.524Z,17.07
2018-03-22T15:36:16.280Z,17.62
2018-03-22T15:38:45.335Z,17.67
2018-03-22T15:41:14.045Z,17.30
2018-03-22T15:43:42.244Z,20.17
2018-03-22T15:46:12.486Z,16.20
2018-03-22T15:48:41.741Z,20.47
2018-03-22T15:51:10.636Z,17.43
2018-03-22T15:53:40.018Z,17.70
2018-03-22T15:56:10.062Z,19.80
2018-03-22T15:58:38.370Z,22.37
2018-03-22T16:01:07.156Z,20.83
2018-03-22T16:03:37.758Z,18.60
2018-03-22T16:06:06.771Z,19.67
2018-03-22T16:08:36.800Z,25.23
2018-03-22T16:11:05.531Z,29.13
2018-03-22T16:13:34.464Z,21.80
2018-03-22T16:16:02.801Z,31.30
2018-03-22T16:18:31.197Z,27.00
2018-03-22T16:21:00.372Z,28.40
2018-03-22T16:23:29.785Z,22.30
2018-03-22T16:25:58.753Z,27.67
2018-03-22T16:28:27.853Z,27.90
2018-03-22T16:30:56.528Z,28.50
2018-03-22T16:33:24.829Z,22.40
2018-03-22T16:35:53.614Z,20.90
2018-03-22T16:38:22.681Z,33.47
2018-03-22T16:40:51.104Z,31.93
2018-03-22T16:43:19.246Z,28.50
2018-03-22T16:45:47.245Z,28.10
2018-03-22T16:48:16.151Z,30.50
2018-03-22T16:50:44.789Z,29.35
2018-03-22T16:53:13.200Z,32.67
2018-03-22T16:55:42.006Z,28.00
2018-03-22T16:58:10.149Z,27.00
2018-03-22T17:00:39.351Z,23.12
2018-03-22T17:03:07.636Z,36.77
2018-03-22T17:05:36.099Z,26.00
2018-03-22T17:08:04.880Z,32.53
2018-03-22T17:10:33.553Z,20.63
2018-03-22T17:13:05.442Z,20.30
2018-03-22T17:15:34.712Z,19.90
2018-03-22T17:18:03.971Z,24.53
2018-03-22T17:20:33.039Z,20.30
2018-03-22T17:23:01.949Z,23.97
2018-03-22T17:25:31.128Z,30.23
2018-03-22T17:28:00.449Z,18.80
2018-03-22T17:30:29.682Z,23.37
2018-03-22T17:32:58.866Z,22.57
2018-03-22T17:35:28.862Z,18.70
2018-03-22T17:37:57.695Z,12.80
2018-03-22T17:40:26.243Z,19.47
2018-03-22T17:42:54.876Z,20.13
2018-03-22T17:45:23.466Z,15.80
2018-03-22T17:47:51.825Z,20.23
2018-03-22T17:50:20.986Z,20.52
2018-03-22T17:52:49.879Z,17.40
2018-03-22T17:55:18.445Z,17.37
2018-03-22T17:57:47.248Z,18.20
2018-03-22T18:00:16.493Z,18.27
2018-03-22T18:02:45.527Z,22.43
2018-03-22T18:05:14.480Z,17.40
2018-03-22T18:07:42.903Z,17.65
2018-03-22T18:10:11.973Z,18.33
2018-03-22T18:12:40.833Z,23.73
2018-03-22T18:15:10.774Z,21.70
2018-03-22T18:17:40.342Z,18.73
2018-03-22T18:20:09.051Z,21.60
2018-03-22T18:22:37.890Z,23.63
2018-03-22T18:25:06.656Z,32.27
2018-03-22T18:27:35.937Z,24.20
2018-03-22T18:30:05.604Z,24.63
2018-03-22T18:32:35.137Z,24.83
2018-03-22T18:35:03.490Z,20.70
2018-03-22T18:37:32.313Z,24.00
2018-03-22T18:40:01.435Z,20.00
2018-03-22T18:42:30.714Z,20.00
2018-03-22T18:44:59.732Z,17.90
2018-03-22T18:47:29.053Z,25.80
2018-03-22T18:49:58.416Z,23.20
2018-03-22T18:52:28.646Z,21.40
2018-03-22T18:54:57.245Z,21.27
2018-03-22T18:57:26.138Z,19.60
2018-03-22T18:59:55.552Z,18.07
2018-03-22T19:02:24.522Z,20.57
2018-03-22T19:04:53.599Z,20.80
2018-03-22T19:07:23.127Z,18.13
2018-03-22T19:09:53.575Z,16.87
2018-03-22T19:12:22.604Z,17.12
2018-03-22T19:14:51.048Z,18.23
2018-03-22T19:17:20.268Z,18.60
2018-03-22T19:19:49.673Z,18.07
2018-03-22T19:22:18.637Z,21.70
2018-03-22T19:24:49.500Z,16.80
2018-03-22T19:27:19.100Z,18.50
2018-03-22T19:29:48.132Z,17.77
2018-03-22T19:32:17.239Z,21.53
2018-03-22T19:34:46.702Z,17.58
2018-03-22T19:37:16.005Z,18.83
2018-03-22T19:39:45.263Z,27.85
2018-03-22T19:42:14.530Z,18.80
2018-03-22T19:44:43.017Z,17.70
2018-03-22T19:47:12.805Z,16.57
2018-03-22T19:49:41.909Z,20.07
2018-03-22T19:52:10.613Z,18.23
2018-03-22T19:54:39.571Z,20.65
2018-03-22T19:57:08.350Z,15.50
2018-03-22T19:59:36.950Z,18.33
2018-03-22T20:02:06.549Z,19.00
2018-03-22T20:04:34.924Z,20.27
2018-03-22T20:07:03.933Z,16.17
2018-03-22T20:09:32.990Z,17.07
2018-03-22T20:12:01.624Z,19.47
2018-03-22T20:14:30.514Z,16.20
2018-03-22T20:16:58.923Z,17.47
2018-03-22T20:19:27.746Z,17.77
2018-03-22T20:21:57.095Z,18.20
2018-03-22T20:24:26.279Z,19.00
2018-03-22T20:26:55.451Z,18.83
2018-03-22T20:29:24.180Z,18.20
2018-03-22T20:31:53.147Z,16.87
2018-03-22T20:34:22.519Z,19.83
2018-03-22T20:36:51.883Z,16.37
2018-03-22T20:39:20.663Z,19.83
2018-03-22T20:41:49.409Z,17.50
2018-03-22T20:44:19.048Z,22.02
2018-03-22T20:46:49.286Z,19.30
2018-03-22T20:49:20.547Z,16.95
2018-03-22T20:51:49.368Z,17.70
2018-03-22T20:54:19.683Z,18.73
2018-03-22T20:56:48.909Z,20.08
2018-03-22T20:59:18.770Z,16.70
2018-03-22T21:01:47.917Z,20.10
2018-03-22T21:04:17.048Z,15.07
2018-03-22T21:06:45.905Z,18.73
2018-03-22T21:09:15.001Z,24.40
2018-03-22T21:11:44.243Z,20.47
2018-03-22T21:14:13.092Z,16.77
2018-03-22T21:16:42.014Z,22.90
2018-03-22T21:19:11.001Z,22.07
2018-03-22T21:21:39.999Z,23.00
2018-03-22T21:24:09.377Z,16.80
2018-03-22T21:26:38.297Z,23.30
2018-03-22T21:29:08.141Z,19.40
2018-03-22T21:31:37.327Z,20.03
2018-03-22T21:34:06.750Z,22.03
2018-03-22T21:36:34.998Z,18.20
2018-03-22T21:39:04.460Z,21.37
2018-03-22T21:41:34.051Z,16.50
2018-03-22T21:44:14.460Z,16.60
2018-03-22T21:46:47.224Z,20.90
2018-03-22T21:49:16.630Z,18.55
2018-03-22T21:54:49.686Z,19.40
2018-03-22T21:57:18.951Z,24.00
2018-03-22T22:02:41.514Z,22.00
2018-03-22T22:05:10.700Z,23.30
2018-03-22T22:07:40.130Z,26.53
2018-03-22T22:10:09.379Z,27.10
2018-03-22T22:12:38.485Z,24.63
2018-03-22T22:15:07.935Z,25.20
2018-03-22T22:17:36.556Z,25.20
2018-03-22T22:20:05.876Z,27.77
2018-03-22T22:22:35.185Z,30.07
2018-03-22T22:25:04.312Z,28.50
2018-03-22T22:27:34.012Z,31.25
2018-03-22T22:30:03.014Z,30.70
2018-03-22T22:32:32.195Z,29.70
2018-03-22T22:35:01.690Z,29.33
2018-03-22T22:37:30.869Z,26.67
2018-03-22T22:39:59.969Z,29.73
2018-03-22T22:42:30.127Z,35.77
2018-03-22T22:44:58.931Z,36.00
2018-03-22T22:47:28.172Z,32.03
2018-03-22T22:49:57.325Z,33.80
2018-03-22T22:52:27.017Z,34.20
2018-03-22T22:54:55.621Z,35.75
2018-03-22T22:57:24.681Z,36.43
2018-03-22T22:59:53.833Z,31.87
2018-03-22T23:02:22.571Z,35.07
2018-03-22T23:04:52.767Z,36.28
2018-03-22T23:07:22.306Z,39.90
2018-03-22T23:09:52.057Z,37.90
2018-03-22T23:12:21.578Z,49.50
2018-03-22T23:14:50.868Z,40.15
2018-03-22T23:17:19.638Z,36.93
2018-03-22T23:19:48.232Z,60.53
2018-03-22T23:22:17.193Z,50.80
2018-03-22T23:24:47.110Z,69.43
2018-03-22T23:27:16.834Z,61.73
2018-03-22T23:29:46.123Z,42.47
2018-03-22T23:32:15.177Z,52.33
2018-03-22T23:34:44.970Z,70.93
2018-03-22T23:37:13.749Z,55.10
2018-03-22T23:39:42.881Z,75.73
2018-03-22T23:42:11.502Z,77.43
2018-03-22T23:44:41.284Z,47.20
2018-03-22T23:47:10.893Z,40.00
2018-03-22T23:49:39.830Z,48.07
2018-03-22T23:52:09.558Z,58.87
2018-03-22T23:54:38.633Z,44.53
2018-03-22T23:57:08.379Z,47.13
2018-03-22T23:59:37.962Z,45.73
